createdAt,value
2022-08-22T00:00:00.295Z,18.8
2022-08-22T00:05:00.185Z,18.7
2022-08-22T00:10:00.391Z,18.6
2022-08-22T00:15:00.194Z,18.6
2022-08-22T00:20:00.222Z,18.5
2022-08-22T00:25:00.140Z,18.4
2022-08-22T00:30:00.301Z,18.4
2022-08-22T00:35:00.202Z,18.3
2022-08-22T00:40:03.277Z,18.2
2022-08-22T00:45:00.191Z,18.2
2022-08-22T00:50:00.282Z,18.1
2022-08-22T00:55:00.129Z,18
2022-08-22T01:00:00.220Z,18
2022-08-22T01:05:00.232Z,17.9
2022-08-22T01:10:00.352Z,17.9
2022-08-22T01:15:00.201Z,17.8
2022-08-22T01:20:00.213Z,17.7
2022-08-22T01:25:00.210Z,17.7
2022-08-22T01:30:00.222Z,17.6
2022-08-22T01:35:00.222Z,17.6
2022-08-22T01:40:00.415Z,17.5
2022-08-22T01:45:00.237Z,17.4
2022-08-22T01:50:00.306Z,17.4
2022-08-22T01:55:00.184Z,17.3
2022-08-22T02:00:00.310Z,17.3
2022-08-22T02:05:00.196Z,17.2
2022-08-22T02:10:00.251Z,17.1
2022-08-22T02:15:00.269Z,17.1
2022-08-22T02:20:00.342Z,17
2022-08-22T02:25:00.132Z,17
2022-08-22T02:30:00.293Z,17
2022-08-22T02:35:00.156Z,16.9
2022-08-22T02:40:00.392Z,16.8
2022-08-22T02:45:00.251Z,16.8
2022-08-22T02:50:00.223Z,16.8
2022-08-22T02:55:00.185Z,16.7
2022-08-22T03:00:00.504Z,16.6
2022-08-22T03:05:00.176Z,16.6
2022-08-22T03:10:00.311Z,16.6
2022-08-22T03:15:00.274Z,16.6
2022-08-22T03:20:00.262Z,16.5
2022-08-22T03:25:00.228Z,16.5
2022-08-22T03:30:00.345Z,16.4
2022-08-22T03:35:00.269Z,16.4
2022-08-22T03:40:00.474Z,16.4
2022-08-22T03:45:00.276Z,16.3
2022-08-22T03:50:00.304Z,16.3
2022-08-22T03:55:00.254Z,16.3
2022-08-22T04:00:00.430Z,16.2
2022-08-22T04:05:00.294Z,16.2
2022-08-22T04:10:00.360Z,16.2
2022-08-22T04:15:00.247Z,16.2
2022-08-22T04:20:00.923Z,16.1
2022-08-22T04:25:03.601Z,16.1
2022-08-22T04:30:00.292Z,16
2022-08-22T04:35:00.304Z,16
2022-08-22T04:40:00.487Z,16
2022-08-22T04:45:00.275Z,16
2022-08-22T04:50:00.290Z,16
2022-08-22T04:55:00.277Z,15.9
2022-08-22T05:00:00.336Z,15.9
2022-08-22T05:05:00.216Z,15.9
2022-08-22T05:10:00.312Z,15.9
2022-08-22T05:15:00.271Z,15.9
2022-08-22T05:20:00.278Z,15.8
2022-08-22T05:25:00.189Z,15.8
2022-08-22T05:30:00.305Z,15.9
2022-08-22T05:35:00.268Z,15.9
2022-08-22T05:40:00.422Z,15.9
2022-08-22T05:45:00.278Z,16
2022-08-22T05:50:00.262Z,16
2022-08-22T05:55:00.237Z,16
2022-08-22T06:00:00.387Z,16
2022-08-22T06:05:00.281Z,16.1
2022-08-22T06:10:00.234Z,16.1
2022-08-22T06:15:00.256Z,16.1
2022-08-22T06:20:00.287Z,16.2
2022-08-22T06:25:00.198Z,16.2
2022-08-22T06:30:00.387Z,16.2
2022-08-22T06:35:00.225Z,16.2
2022-08-22T06:40:00.388Z,16.2
2022-08-22T06:45:00.231Z,16.4
2022-08-22T06:50:00.267Z,16.5
2022-08-22T06:55:00.239Z,16.6
2022-08-22T07:00:00.347Z,16.7
2022-08-22T07:05:00.239Z,16.9
2022-08-22T07:10:00.323Z,17
2022-08-22T07:15:00.240Z,17.2
2022-08-22T07:20:00.322Z,17.3
2022-08-22T07:25:00.274Z,17.4
2022-08-22T07:30:00.320Z,17.6
2022-08-22T07:35:00.744Z,17.7
2022-08-22T07:40:00.396Z,17.8
2022-08-22T07:45:00.219Z,18
2022-08-22T07:50:00.306Z,18.1
2022-08-22T07:55:00.291Z,18.2
2022-08-22T08:00:00.301Z,18.3
2022-08-22T08:05:00.226Z,18.4
2022-08-22T08:10:00.237Z,18.5
2022-08-22T08:15:00.281Z,18.6
2022-08-22T08:20:00.219Z,18.6
2022-08-22T08:25:00.221Z,18.8
2022-08-22T08:30:00.313Z,19
2022-08-22T08:35:00.214Z,19.1
2022-08-22T08:40:00.360Z,19.2
2022-08-22T08:45:00.257Z,19.3
2022-08-22T08:50:00.226Z,19.5
2022-08-22T08:55:00.265Z,19.6
2022-08-22T09:00:00.340Z,19.7
2022-08-22T09:05:00.279Z,19.8
2022-08-22T09:10:00.245Z,19.9
2022-08-22T09:15:00.296Z,20.1
2022-08-22T09:20:00.286Z,20.3
2022-08-22T09:25:00.176Z,20.4
2022-08-22T09:30:00.801Z,20.6
2022-08-22T09:35:00.245Z,20.8
2022-08-22T09:40:00.394Z,21
2022-08-22T09:45:00.279Z,21.2
2022-08-22T09:50:00.205Z,21.4
2022-08-22T09:55:00.249Z,21.5
2022-08-22T10:00:00.311Z,21.7
2022-08-22T10:05:00.355Z,21.8
2022-08-22T10:10:00.768Z,22
2022-08-22T10:15:00.275Z,22.1
2022-08-22T10:20:00.293Z,22.3
2022-08-22T10:25:00.324Z,22.4
2022-08-22T10:30:05.343Z,22.5
2022-08-22T10:35:00.280Z,22.6
2022-08-22T10:40:00.445Z,22.7
2022-08-22T10:45:00.245Z,22.9
2022-08-22T10:50:00.326Z,23
2022-08-22T10:55:00.251Z,23.1
2022-08-22T11:00:00.260Z,23.1
2022-08-22T11:05:00.248Z,23.3
2022-08-22T11:10:00.248Z,23.4
2022-08-22T11:15:00.296Z,23.5
2022-08-22T11:20:00.263Z,23.6
2022-08-22T11:25:04.225Z,23.8
2022-08-22T11:30:00.253Z,23.8
2022-08-22T11:35:00.457Z,23.9
2022-08-22T11:40:00.399Z,24
2022-08-22T11:45:00.295Z,24.1
2022-08-22T11:50:00.315Z,24.2
2022-08-22T11:55:00.263Z,24.3
2022-08-22T12:00:00.259Z,24.4
2022-08-22T12:05:00.219Z,24.5
2022-08-22T12:10:00.239Z,24.6
2022-08-22T12:15:00.289Z,24.6
2022-08-22T12:20:16.991Z,24.7
2022-08-22T12:25:02.891Z,24.8
2022-08-22T12:30:00.334Z,24.9
2022-08-22T12:35:00.261Z,25
2022-08-22T12:40:00.365Z,25.2
2022-08-22T12:45:00.271Z,25.4
2022-08-22T12:50:00.260Z,25.6
2022-08-22T12:55:00.302Z,25.7
2022-08-22T13:00:00.277Z,25.8
2022-08-22T13:05:00.240Z,25.9
2022-08-22T13:10:00.234Z,25.9
2022-08-22T13:15:00.235Z,25.9
2022-08-22T13:20:00.232Z,26
2022-08-22T13:25:00.172Z,26
2022-08-22T13:30:00.217Z,26.1
2022-08-22T13:35:00.221Z,26.2
2022-08-22T13:40:00.391Z,26.2
2022-08-22T13:45:00.267Z,26.3
2022-08-22T13:50:00.291Z,26.3
2022-08-22T13:55:00.295Z,26.2
2022-08-22T14:00:05.780Z,26.2
2022-08-22T14:05:00.163Z,26.2
2022-08-22T14:10:02.568Z,26.2
2022-08-22T14:15:00.266Z,26.2
2022-08-22T14:20:01.499Z,26.2
2022-08-22T14:25:00.253Z,26.2
2022-08-22T14:30:00.227Z,26.2
2022-08-22T14:35:00.232Z,26.2
2022-08-22T14:40:00.378Z,26.2
2022-08-22T14:45:00.216Z,26.2
2022-08-22T14:50:00.209Z,26.2
2022-08-22T14:55:02.879Z,26.2
2022-08-22T15:00:00.297Z,26.2
2022-08-22T15:05:00.248Z,26.2
2022-08-22T15:10:01.120Z,26.2
2022-08-22T15:15:00.237Z,26.3
2022-08-22T15:20:00.461Z,26.4
2022-08-22T15:25:00.161Z,26.4
2022-08-22T15:30:00.276Z,26.4
2022-08-22T15:35:00.239Z,26.4
2022-08-22T15:40:00.349Z,26.5
2022-08-22T15:45:00.234Z,26.5
2022-08-22T15:50:00.282Z,26.5
2022-08-22T15:55:00.276Z,26.6
2022-08-22T16:00:00.253Z,26.6
2022-08-22T16:05:00.259Z,26.8
2022-08-22T16:10:00.283Z,27
2022-08-22T16:15:00.245Z,27.1
2022-08-22T16:20:00.441Z,27.3
2022-08-22T16:25:00.249Z,27.3
2022-08-22T16:30:00.332Z,27.4
2022-08-22T16:35:00.220Z,27.4
2022-08-22T16:40:00.432Z,27.4
2022-08-22T16:45:00.243Z,27.3
2022-08-22T16:50:00.289Z,27.3
2022-08-22T16:55:00.235Z,27.3
2022-08-22T17:00:00.273Z,27.2
2022-08-22T17:05:00.224Z,27.1
2022-08-22T17:10:00.252Z,27
2022-08-22T17:15:00.254Z,27
2022-08-22T17:20:00.252Z,26.9
2022-08-22T17:25:00.220Z,26.8
2022-08-22T17:30:00.261Z,26.7
2022-08-22T17:35:00.253Z,26.6
2022-08-22T17:40:00.600Z,26.5
2022-08-22T17:45:00.282Z,26.4
2022-08-22T17:50:00.246Z,26.3
2022-08-22T17:55:00.294Z,26.2
2022-08-22T18:00:00.303Z,26.1
2022-08-22T18:05:00.223Z,26
2022-08-22T18:10:00.249Z,25.9
2022-08-22T18:15:00.230Z,25.8
2022-08-22T18:20:00.259Z,25.6
2022-08-22T18:25:00.285Z,25.5
2022-08-22T18:30:00.332Z,25.4
2022-08-22T18:35:02.594Z,25.3
2022-08-22T18:40:00.371Z,25.2
2022-08-22T18:45:00.277Z,25.1
2022-08-22T18:50:00.449Z,25
2022-08-22T18:55:00.231Z,24.8
2022-08-22T19:00:00.276Z,24.8
2022-08-22T19:05:00.241Z,24.6
2022-08-22T19:10:00.246Z,24.6
2022-08-22T19:15:00.294Z,24.4
2022-08-22T19:20:00.301Z,24.4
2022-08-22T19:25:00.191Z,24.3
2022-08-22T19:30:00.362Z,24.2
2022-08-22T19:35:02.051Z,24.1
2022-08-22T19:40:00.414Z,24
2022-08-22T19:45:00.318Z,24
2022-08-22T19:50:00.276Z,23.9
2022-08-22T19:55:00.215Z,23.8
2022-08-22T20:00:00.433Z,23.7
2022-08-22T20:05:00.197Z,23.7
2022-08-22T20:10:00.272Z,23.6
2022-08-22T20:15:05.144Z,23.6
2022-08-22T20:20:17.745Z,23.4
2022-08-22T20:25:00.186Z,23.4
2022-08-22T20:30:00.308Z,23.4
2022-08-22T20:35:00.218Z,23.3
2022-08-22T20:40:00.336Z,23.2
2022-08-22T20:45:00.238Z,23.2
2022-08-22T20:50:00.254Z,23.1
2022-08-22T20:55:00.289Z,23
2022-08-22T21:00:00.276Z,23
2022-08-22T21:05:00.190Z,22.9
2022-08-22T21:10:00.260Z,22.8
2022-08-22T21:15:00.274Z,22.8
2022-08-22T21:20:00.261Z,22.7
2022-08-22T21:25:00.321Z,22.6
2022-08-22T21:30:00.266Z,22.6
2022-08-22T21:35:00.237Z,22.6
2022-08-22T21:40:00.368Z,22.5
2022-08-22T21:45:00.206Z,22.5
2022-08-22T21:50:00.166Z,22.4
2022-08-22T21:55:00.215Z,22.4
2022-08-22T22:00:00.367Z,22.4
2022-08-22T22:05:00.230Z,22.3
2022-08-22T22:10:00.250Z,22.3
2022-08-22T22:15:00.233Z,22.2
2022-08-22T22:20:00.312Z,22.2
2022-08-22T22:25:00.147Z,22.2
2022-08-22T22:30:00.243Z,22.2
2022-08-22T22:35:00.272Z,22.1
2022-08-22T22:40:00.314Z,22
2022-08-22T22:45:00.225Z,22
2022-08-22T22:50:00.301Z,21.9
2022-08-22T22:55:00.269Z,21.8
2022-08-22T23:00:00.247Z,21.8
2022-08-22T23:05:00.248Z,21.8
2022-08-22T23:10:00.151Z,21.8
2022-08-22T23:15:00.232Z,21.7
2022-08-22T23:20:00.209Z,21.6
2022-08-22T23:25:00.230Z,21.6
2022-08-22T23:30:00.172Z,21.5
2022-08-22T23:35:00.145Z,21.5
2022-08-22T23:40:00.366Z,21.4
2022-08-22T23:45:00.138Z,21.4
2022-08-22T23:50:05.815Z,21.4
2022-08-22T23:55:00.246Z,21.4
